Flag for USA

Past Weather in Georgia Pacific Wildlife Management Area, Louisiana, USA — Yesterday and Last 2 Weeks

Currently: 55 °F. Clear. (Weather station: Vicksburg Municipal, USA). See more current weather

Past Weather in Georgia Pacific Wildlife Management Area — Graph

°F

Georgia Pacific Wildlife Management Area Temperature Yesterday

Maximum temperature yesterday: 64 °F (at 1:35 pm)
Minimum temperature yesterday: 32 °F (at 5:35 am)
Average temperature yesterday: 46 °F

High & Low Weather Summary for the Past Weeks

 TemperatureHumidityPressure
High81 °F (Nov 17, 2:55 pm)100% (Nov 15, 6:35 pm)30.46 "Hg (Nov 15, 6:35 pm)
Low30 °F (Nov 27, 6:15 am)23% (Nov 19, 1:35 pm)30.04 "Hg (Nov 17, 2:55 pm)
Average53 °F79%30.20 "Hg
* Reported Nov 15 5:15 pm — Nov 30 5:35 pm, Georgia Pacific Wildlife Management Area. Weather by CustomWeather, © 2021

Note: Actual official high and low records may vary slightly from our data, if they occured in-between our weather recording intervals... More about our weather records

Georgia Pacific Wildlife Management Area Weather History for the Previous 24 Hours

Scroll right to see more
 ConditionsComfort  
Time TempWeatherWind HumidityBarometerVisibility
5:35 pm
Tue, Nov 30
57 °FClear.No wind63%30.14 "Hg10 mi
5:15 pm61 °FClear.No wind55%30.14 "Hg10 mi
4:55 pm64 °FSunny.No wind46%30.13 "Hg10 mi
4:35 pm66 °FSunny.5 mph43%30.13 "Hg10 mi
4:15 pm68 °FSunny.7 mph38%30.13 "Hg10 mi
3:55 pm70 °FSunny.8 mph35%30.13 "Hg10 mi
3:35 pm70 °FSunny.7 mph38%30.13 "Hg10 mi
3:15 pm70 °FSunny.5 mph38%30.14 "Hg10 mi
2:55 pm70 °FSunny.8 mph38%30.14 "Hg10 mi
2:35 pm72 °FSunny.8 mph36%30.14 "Hg10 mi
2:15 pm70 °FSunny.9 mph38%30.14 "Hg10 mi
1:35 pm70 °FSunny.9 mph43%30.15 "Hg10 mi
1:15 pm70 °FSunny.6 mph43%30.16 "Hg10 mi
12:35 pm68 °FSunny.8 mph46%30.17 "Hg10 mi
11:55 am66 °FSunny.9 mph52%30.19 "Hg10 mi
11:35 am66 °FSunny.9 mph52%30.20 "Hg10 mi
11:15 am66 °FSunny.9 mph52%30.21 "Hg10 mi
10:35 am63 °FSunny.7 mph56%30.23 "Hg10 mi
9:55 am61 °FSunny.5 mph59%30.23 "Hg10 mi
9:35 am59 °FSunny.5 mph63%30.22 "Hg10 mi
9:15 am57 °FSunny.No wind67%30.22 "Hg10 mi
8:35 am52 °FSunny.No wind100%30.21 "Hg9 mi
8:15 am46 °FSunny.No wind100%30.21 "Hg7 mi
7:55 am43 °FSunny.No wind100%30.20 "Hg8 mi
7:35 am39 °FSunny.No wind100%30.20 "Hg9 mi
7:15 am37 °FSunny.No wind100%30.19 "Hg10 mi
6:35 am37 °FClear.No wind100%30.19 "Hg10 mi
6:15 am37 °FClear.No wind100%30.18 "Hg10 mi
5:55 am37 °FClear.No wind100%30.18 "Hg10 mi
5:35 am37 °FClear.No wind100%30.17 "Hg9 mi
5:15 am37 °FClear.No wind100%30.16 "Hg10 mi
4:55 am36 °FPassing clouds.No wind100%30.16 "Hg10 mi
4:35 am37 °FClear.No wind100%30.16 "Hg10 mi
4:15 am37 °FPassing clouds.No wind100%30.16 "Hg10 mi
3:35 am36 °FPassing clouds.No wind100%30.15 "Hg10 mi
3:15 am36 °FPassing clouds.No wind100%30.15 "Hg10 mi
2:55 am37 °FPassing clouds.No wind100%30.15 "Hg10 mi
2:35 am37 °FPassing clouds.No wind100%30.15 "Hg10 mi
2:15 am37 °FPassing clouds.No wind100%30.15 "Hg10 mi
1:35 am37 °FPassing clouds.No wind100%30.15 "Hg10 mi
1:15 am37 °FClear.No wind100%30.15 "Hg10 mi
12:55 am37 °FClear.No wind100%30.15 "Hg10 mi
12:35 am37 °FClear.No wind100%30.16 "Hg10 mi
12:15 am37 °FClear.No wind100%30.16 "Hg9 mi
11:55 pm
Mon, Nov 29
37 °FClear.No wind100%30.17 "Hg8 mi
11:35 pm39 °FClear.No wind100%30.17 "Hg10 mi
11:15 pm39 °FClear.No wind100%30.17 "Hg8 mi
10:55 pm39 °FClear.No wind100%30.16 "Hg9 mi
10:35 pm39 °FClear.No wind100%30.16 "Hg10 mi
10:15 pm39 °FClear.No wind100%30.16 "Hg10 mi
9:55 pm39 °FClear.No wind100%30.16 "Hg10 mi
9:35 pm41 °FClear.No wind100%30.16 "Hg10 mi
9:15 pm41 °FClear.No wind100%30.17 "Hg10 mi
8:55 pm41 °FClear.No wind100%30.17 "Hg10 mi
8:35 pm43 °FClear.No wind100%30.16 "Hg10 mi
8:15 pm43 °FClear.No wind93%30.16 "Hg10 mi
7:55 pm43 °FClear.No wind93%30.15 "Hg10 mi
7:15 pm45 °FClear.No wind93%30.15 "Hg10 mi
6:55 pm46 °FClear.No wind87%30.15 "Hg10 mi
6:35 pm46 °FClear.No wind87%30.15 "Hg10 mi
6:15 pm48 °FClear.No wind82%30.15 "Hg10 mi
Weather by CustomWeather, © 2021

See weather overview